createdAt,value
2022-09-06T00:00:24.932Z,47.40
2022-09-06T00:02:51.608Z,47.40
2022-09-06T00:05:18.360Z,47.30
2022-09-06T00:07:44.962Z,47.30
2022-09-06T00:10:11.583Z,47.10
2022-09-06T00:12:38.343Z,47.10
2022-09-06T00:15:05.472Z,47.20
2022-09-06T00:17:32.929Z,47.20
2022-09-06T00:19:59.568Z,47.20
2022-09-06T00:22:26.183Z,47.20
2022-09-06T00:24:52.826Z,47.10
2022-09-06T00:27:19.448Z,47.10
2022-09-06T00:29:46.055Z,47.10
2022-09-06T00:32:12.697Z,47.10
2022-09-06T00:34:39.342Z,47.00
2022-09-06T00:37:05.970Z,47.10
2022-09-06T00:39:32.622Z,47.10
2022-09-06T00:41:59.307Z,47.10
2022-09-06T00:44:25.925Z,47.10
2022-09-06T00:46:53.008Z,47.10
2022-09-06T00:49:31.328Z,47.10
2022-09-06T00:52:06.584Z,47.10
2022-09-06T00:54:33.191Z,47.00
2022-09-06T00:56:59.831Z,47.00
2022-09-06T00:59:29.943Z,47.10
2022-09-06T01:01:56.977Z,46.90
2022-09-06T01:04:24.150Z,47.00
2022-09-06T01:06:54.917Z,46.90
2022-09-06T01:09:47.724Z,47.00
2022-09-06T01:12:30.570Z,46.80
2022-09-06T01:15:26.191Z,46.90
2022-09-06T01:18:20.775Z,46.90
2022-09-06T01:21:38.893Z,46.80
2022-09-06T01:24:11.140Z,46.90
2022-09-06T01:26:52.756Z,46.90
2022-09-06T01:29:54.845Z,47.10
2022-09-06T01:32:30.557Z,46.90
2022-09-06T01:35:07.462Z,46.90
2022-09-06T01:37:34.142Z,46.80
2022-09-06T01:40:00.808Z,46.80
2022-09-06T01:42:29.425Z,46.80
2022-09-06T01:45:10.195Z,46.70
2022-09-06T01:47:54.228Z,46.80
2022-09-06T01:50:39.333Z,46.60
2022-09-06T01:53:11.229Z,46.60
2022-09-06T01:55:45.703Z,46.60
2022-09-06T01:58:18.649Z,46.60
2022-09-06T02:01:24.014Z,46.60
2022-09-06T02:03:55.921Z,46.70
2022-09-06T02:06:25.790Z,46.80
2022-09-06T02:08:55.840Z,46.80
2022-09-06T02:11:22.463Z,46.60
2022-09-06T02:13:55.220Z,46.60
2022-09-06T02:16:23.556Z,46.60
2022-09-06T02:19:06.753Z,46.60
2022-09-06T02:21:35.344Z,46.60
2022-09-06T02:24:03.591Z,46.80
2022-09-06T02:26:32.618Z,46.60
2022-09-06T02:28:59.233Z,46.50
2022-09-06T02:31:29.388Z,46.60
2022-09-06T02:33:56.076Z,46.60
2022-09-06T02:36:22.711Z,46.60
2022-09-06T02:38:49.364Z,46.60
2022-09-06T02:41:18.633Z,46.60
2022-09-06T02:43:45.271Z,46.60
2022-09-06T02:46:12.466Z,46.60
2022-09-06T02:48:39.127Z,46.50
2022-09-06T02:51:06.581Z,47.10
2022-09-06T02:53:33.661Z,46.50
2022-09-06T02:56:00.307Z,46.40
2022-09-06T02:58:27.092Z,46.40
2022-09-06T03:00:53.934Z,46.40
2022-09-06T03:03:21.012Z,46.50
2022-09-06T03:05:48.602Z,46.40
2022-09-06T03:08:15.775Z,46.40
2022-09-06T03:10:48.630Z,46.40
2022-09-06T03:13:15.628Z,46.50
2022-09-06T03:15:42.244Z,46.60
2022-09-06T03:18:08.872Z,46.40
2022-09-06T03:20:37.255Z,46.50
2022-09-06T03:23:04.118Z,46.50
2022-09-06T03:25:30.745Z,46.50
2022-09-06T03:27:57.375Z,46.40
2022-09-06T03:30:24.038Z,46.30
2022-09-06T03:32:50.738Z,46.30
2022-09-06T03:35:17.412Z,46.50
2022-09-06T03:37:44.034Z,46.40
2022-09-06T03:40:11.464Z,46.30
2022-09-06T03:42:38.260Z,46.30
2022-09-06T03:45:05.744Z,46.30
2022-09-06T03:47:32.368Z,46.40
2022-09-06T03:49:58.983Z,46.30
2022-09-06T03:52:25.617Z,46.30
2022-09-06T03:54:52.532Z,46.30
2022-09-06T03:57:19.151Z,46.30
2022-09-06T03:59:45.768Z,46.40
2022-09-06T04:02:12.464Z,46.30
2022-09-06T04:04:39.157Z,46.20
2022-09-06T04:07:05.804Z,46.30
2022-09-06T04:09:32.441Z,46.30
2022-09-06T04:11:59.067Z,46.30
2022-09-06T04:14:25.684Z,46.30
2022-09-06T04:16:52.514Z,46.00
2022-09-06T04:19:19.216Z,45.90
2022-09-06T04:21:45.834Z,46.00
2022-09-06T04:24:12.519Z,46.00
2022-09-06T04:26:39.133Z,45.10
2022-09-06T04:29:05.773Z,44.80
2022-09-06T04:31:32.528Z,44.70
2022-09-06T04:33:59.197Z,44.60
2022-09-06T04:36:25.827Z,44.40
2022-09-06T04:38:52.513Z,44.20
2022-09-06T04:41:19.207Z,43.90
2022-09-06T04:43:45.944Z,43.90
2022-09-06T04:46:21.882Z,43.60
2022-09-06T04:48:48.931Z,43.30
2022-09-06T04:51:15.597Z,43.30
2022-09-06T04:53:42.232Z,43.00
2022-09-06T04:56:15.991Z,43.20
2022-09-06T04:58:43.343Z,42.40
2022-09-06T05:01:10.104Z,42.80
2022-09-06T05:03:36.849Z,43.00
2022-09-06T05:06:05.318Z,43.70
2022-09-06T05:08:31.947Z,44.10
2022-09-06T05:10:58.554Z,44.10
2022-09-06T05:13:25.204Z,44.30
2022-09-06T05:15:51.823Z,44.50
2022-09-06T05:18:18.450Z,44.60
2022-09-06T05:20:45.057Z,44.50
2022-09-06T05:23:11.681Z,44.60
2022-09-06T05:25:38.305Z,44.40
2022-09-06T05:28:05.004Z,44.50
2022-09-06T05:30:31.633Z,44.40
2022-09-06T05:32:58.273Z,44.60
2022-09-06T05:35:24.936Z,44.60
2022-09-06T05:37:51.559Z,44.60
2022-09-06T05:40:18.184Z,44.80
2022-09-06T05:42:44.801Z,45.50
2022-09-06T05:45:11.433Z,45.00
2022-09-06T05:47:38.359Z,45.00
2022-09-06T05:50:06.923Z,45.10
2022-09-06T05:52:35.045Z,45.40
2022-09-06T05:55:02.233Z,45.30
2022-09-06T05:57:28.865Z,45.50
2022-09-06T05:59:55.511Z,45.40
2022-09-06T06:02:22.627Z,45.30
2022-09-06T06:04:49.449Z,45.70
2022-09-06T06:07:16.060Z,45.60
2022-09-06T06:09:42.724Z,45.80
2022-09-06T06:12:09.602Z,45.60
2022-09-06T06:14:36.231Z,45.80
2022-09-06T06:17:02.992Z,45.90
2022-09-06T06:19:29.683Z,45.90
2022-09-06T06:21:58.261Z,46.50
2022-09-06T06:24:24.930Z,45.70
2022-09-06T06:26:51.943Z,45.60
2022-09-06T06:29:19.529Z,45.70
2022-09-06T06:31:46.385Z,45.70
2022-09-06T06:34:13.075Z,45.70
2022-09-06T06:36:39.687Z,45.60
2022-09-06T06:39:08.364Z,45.70
2022-09-06T06:41:34.985Z,45.60
2022-09-06T06:44:02.946Z,45.60
2022-09-06T06:46:31.549Z,45.60
2022-09-06T06:48:58.200Z,45.60
2022-09-06T06:51:26.654Z,45.60
2022-09-06T06:53:53.324Z,45.60
2022-09-06T06:56:31.039Z,45.60
2022-09-06T06:58:59.587Z,45.60
2022-09-06T07:01:27.557Z,45.60
2022-09-06T07:03:54.534Z,45.50
2022-09-06T07:06:21.436Z,45.60
2022-09-06T07:08:48.366Z,45.60
2022-09-06T07:11:15.786Z,45.60
2022-09-06T07:13:42.473Z,45.70
2022-09-06T07:16:17.699Z,45.70
2022-09-06T07:18:45.733Z,45.70
2022-09-06T07:24:07.915Z,45.70
2022-09-06T07:26:36.255Z,45.90
2022-09-06T07:29:03.915Z,45.70
2022-09-06T07:34:19.257Z,45.70
2022-09-06T07:36:45.965Z,45.70
2022-09-06T07:39:12.607Z,45.70
2022-09-06T07:41:39.234Z,45.60
2022-09-06T07:44:05.867Z,45.70
2022-09-06T07:46:32.498Z,45.70
2022-09-06T07:48:59.227Z,45.70
2022-09-06T07:51:25.892Z,45.70
2022-09-06T07:54:12.943Z,45.60
2022-09-06T07:56:41.949Z,45.70
2022-09-06T07:59:09.208Z,45.60
2022-09-06T08:01:36.702Z,45.70
2022-09-06T08:04:04.907Z,45.70
2022-09-06T08:09:20.285Z,45.70
2022-09-06T08:11:47.692Z,45.70
2022-09-06T08:14:14.341Z,45.70
2022-09-06T08:16:40.998Z,45.80
2022-09-06T08:19:12.245Z,45.80
2022-09-06T08:21:38.904Z,45.80
2022-09-06T08:24:06.837Z,45.80
2022-09-06T08:26:34.460Z,45.90
2022-09-06T08:29:02.371Z,45.80
2022-09-06T08:31:30.039Z,46.40
2022-09-06T08:33:57.307Z,45.80
2022-09-06T08:36:27.067Z,45.70
2022-09-06T08:38:53.789Z,46.40
2022-09-06T08:41:33.573Z,45.70
2022-09-06T08:47:03.523Z,45.70
2022-09-06T08:49:32.219Z,45.70
2022-09-06T08:52:41.828Z,45.70
2022-09-06T08:55:40.019Z,45.70
2022-09-06T08:58:19.856Z,45.70
2022-09-06T09:00:50.540Z,45.70
2022-09-06T09:03:21.704Z,45.60
2022-09-06T09:05:49.872Z,45.70
2022-09-06T09:08:20.003Z,45.70
2022-09-06T09:10:52.301Z,45.70
2022-09-06T09:13:56.092Z,45.60
2022-09-06T09:16:23.013Z,45.60
2022-09-06T09:18:52.187Z,45.60
2022-09-06T09:21:22.690Z,45.70
2022-09-06T09:23:55.653Z,45.70
2022-09-06T09:26:23.683Z,45.70
2022-09-06T09:29:07.561Z,45.70
2022-09-06T09:31:37.981Z,45.70
2022-09-06T09:34:05.016Z,45.80
2022-09-06T09:36:32.716Z,45.80
2022-09-06T09:38:59.777Z,45.80
2022-09-06T09:41:29.218Z,45.90
2022-09-06T09:44:04.903Z,45.80
2022-09-06T09:46:35.923Z,45.80
2022-09-06T09:49:11.357Z,45.80
2022-09-06T09:51:45.670Z,45.80
2022-09-06T09:54:30.370Z,45.70
2022-09-06T09:56:57.008Z,45.70
2022-09-06T09:59:53.998Z,45.70
2022-09-06T10:02:35.803Z,45.70
2022-09-06T10:05:04.763Z,45.70
2022-09-06T10:07:32.483Z,45.70
2022-09-06T10:10:01.142Z,45.70
2022-09-06T10:12:30.077Z,45.70
2022-09-06T10:14:57.708Z,45.70
2022-09-06T10:17:34.829Z,45.70
2022-09-06T10:20:07.966Z,45.70
2022-09-06T10:22:41.779Z,45.70
2022-09-06T10:25:21.854Z,45.70
2022-09-06T10:28:11.087Z,45.60
2022-09-06T10:30:59.238Z,45.60
2022-09-06T10:33:59.611Z,46.10
2022-09-06T10:36:35.529Z,46.30
2022-09-06T10:39:33.582Z,46.10
2022-09-06T10:42:21.444Z,45.80
2022-09-06T10:45:13.944Z,45.70
2022-09-06T10:48:02.865Z,45.60
2022-09-06T10:50:41.918Z,45.60
2022-09-06T10:53:16.673Z,47.70
2022-09-06T10:55:46.271Z,46.50
2022-09-06T10:58:25.595Z,46.00
2022-09-06T11:00:52.267Z,46.00
2022-09-06T11:06:20.095Z,46.00
2022-09-06T11:08:53.581Z,46.00
2022-09-06T11:11:38.072Z,46.10
2022-09-06T11:14:07.123Z,46.10
2022-09-06T11:16:39.487Z,46.00
2022-09-06T11:19:12.081Z,46.00
2022-09-06T11:21:48.265Z,46.00
2022-09-06T11:24:52.402Z,45.90
2022-09-06T11:27:33.178Z,46.80
2022-09-06T11:30:00.408Z,46.80
2022-09-06T11:32:37.756Z,45.90
2022-09-06T11:35:10.059Z,46.00
2022-09-06T11:37:42.997Z,46.30
2022-09-06T11:42:50.282Z,46.60
2022-09-06T11:45:21.848Z,46.30
2022-09-06T11:47:52.171Z,46.20
2022-09-06T11:50:21.478Z,46.10
2022-09-06T11:53:07.351Z,46.10
2022-09-06T11:55:49.733Z,46.10
2022-09-06T11:58:16.281Z,45.60
2022-09-06T12:00:43.065Z,42.80
2022-09-06T12:06:16.569Z,45.20
2022-09-06T12:08:43.645Z,45.30
2022-09-06T12:11:33.364Z,45.20
2022-09-06T12:14:40.346Z,45.20
2022-09-06T12:17:09.821Z,44.80
2022-09-06T12:19:46.429Z,43.10
2022-09-06T12:22:35.804Z,44.50
2022-09-06T12:25:02.361Z,44.00
2022-09-06T12:27:30.489Z,44.00
2022-09-06T12:30:07.789Z,43.80
2022-09-06T12:32:42.539Z,43.90
2022-09-06T12:38:25.634Z,41.90
2022-09-06T12:40:56.294Z,43.10
2022-09-06T12:43:22.915Z,43.80
2022-09-06T12:45:50.741Z,41.60
2022-09-06T12:48:35.309Z,42.60
2022-09-06T12:51:16.206Z,42.00
2022-09-06T12:53:52.325Z,42.30
2022-09-06T12:56:20.829Z,43.30
2022-09-06T12:58:47.452Z,43.60
2022-09-06T13:01:24.171Z,42.10
2022-09-06T13:03:56.520Z,42.40
2022-09-06T13:06:27.009Z,43.40
2022-09-06T13:08:55.523Z,42.00
2022-09-06T13:11:30.664Z,43.50
2022-09-06T13:13:57.290Z,42.50
2022-09-06T13:16:25.450Z,42.40
2022-09-06T13:18:52.228Z,41.80
2022-09-06T13:21:32.790Z,42.70
2022-09-06T13:24:03.815Z,43.80
2022-09-06T13:26:38.123Z,42.90
2022-09-06T13:29:16.769Z,42.20
2022-09-06T13:31:54.943Z,43.20
2022-09-06T13:34:29.033Z,43.60
2022-09-06T13:37:06.181Z,44.00
2022-09-06T13:39:40.172Z,43.60
2022-09-06T13:42:08.135Z,44.00
2022-09-06T13:44:35.885Z,43.70
2022-09-06T13:47:02.692Z,43.80
2022-09-06T13:49:29.419Z,43.80
2022-09-06T13:52:00.162Z,44.00
2022-09-06T13:54:26.839Z,44.00
2022-09-06T13:56:53.543Z,44.30
2022-09-06T13:59:20.208Z,45.80
2022-09-06T14:01:48.264Z,44.90
2022-09-06T14:04:16.365Z,44.50
2022-09-06T14:06:43.029Z,44.40
2022-09-06T14:09:09.998Z,44.20
2022-09-06T14:11:36.726Z,44.40
2022-09-06T14:14:03.647Z,44.10
2022-09-06T14:16:30.293Z,43.90
2022-09-06T14:18:56.992Z,44.00
2022-09-06T14:21:23.865Z,43.70
2022-09-06T14:23:51.122Z,43.70
2022-09-06T14:26:18.802Z,43.80
2022-09-06T14:28:45.595Z,43.70
2022-09-06T14:31:32.549Z,43.50
2022-09-06T14:33:59.550Z,43.50
2022-09-06T14:36:27.452Z,43.50
2022-09-06T14:38:54.085Z,43.20
2022-09-06T14:41:21.034Z,43.50
2022-09-06T14:43:52.162Z,43.30
2022-09-06T14:46:19.428Z,43.40
2022-09-06T14:48:46.268Z,43.30
2022-09-06T14:51:14.750Z,43.30
2022-09-06T14:53:42.163Z,43.40
2022-09-06T14:56:09.375Z,43.40
2022-09-06T14:58:37.367Z,43.50
2022-09-06T15:01:14.695Z,43.40
2022-09-06T15:03:42.769Z,43.70
2022-09-06T15:06:09.647Z,43.40
2022-09-06T15:08:36.509Z,43.60
2022-09-06T15:11:04.094Z,43.50
2022-09-06T15:13:30.991Z,43.60
2022-09-06T15:15:57.807Z,43.60
2022-09-06T15:18:24.489Z,43.70
2022-09-06T15:20:51.127Z,44.00
2022-09-06T15:23:25.809Z,43.70
2022-09-06T15:25:54.015Z,43.80
2022-09-06T15:28:20.685Z,44.00
2022-09-06T15:30:47.455Z,44.00
2022-09-06T15:33:14.935Z,43.80
2022-09-06T15:35:42.988Z,43.80
2022-09-06T15:38:10.821Z,43.70
2022-09-06T15:40:37.568Z,43.80
2022-09-06T15:43:04.412Z,44.00
2022-09-06T15:45:31.045Z,44.00
2022-09-06T15:47:57.653Z,44.90
2022-09-06T15:50:47.538Z,44.90
2022-09-06T15:53:10.885Z,45.00
2022-09-06T15:55:56.109Z,44.90
2022-09-06T15:58:24.218Z,44.90
2022-09-06T16:01:19.078Z,44.90
2022-09-06T16:03:48.042Z,44.80
2022-09-06T16:06:28.223Z,44.80
2022-09-06T16:09:03.793Z,44.90
2022-09-06T16:11:32.531Z,44.70
2022-09-06T16:13:59.187Z,44.70
2022-09-06T16:16:25.855Z,44.80
2022-09-06T16:18:52.522Z,44.90
2022-09-06T16:21:24.507Z,44.80
2022-09-06T16:23:59.632Z,44.90
2022-09-06T16:26:28.174Z,44.80
2022-09-06T16:28:54.839Z,44.80
2022-09-06T16:31:21.600Z,44.90
2022-09-06T16:33:48.981Z,45.60
2022-09-06T16:36:15.847Z,45.00
2022-09-06T16:38:42.491Z,44.90
2022-09-06T16:41:23.882Z,45.00
2022-09-06T16:43:51.097Z,45.00
2022-09-06T16:46:17.920Z,45.00
2022-09-06T16:48:52.959Z,45.00
2022-09-06T16:51:20.464Z,45.10
2022-09-06T16:53:47.508Z,45.10
2022-09-06T16:56:15.681Z,45.20
2022-09-06T16:58:43.457Z,45.20
2022-09-06T17:01:10.209Z,45.20
2022-09-06T17:03:38.711Z,45.20
2022-09-06T17:06:06.106Z,45.30
2022-09-06T17:08:33.037Z,45.20
2022-09-06T17:11:11.575Z,45.20
2022-09-06T17:13:38.224Z,45.20
2022-09-06T17:16:23.838Z,45.30
2022-09-06T17:18:53.648Z,45.30
2022-09-06T17:21:21.399Z,45.30
2022-09-06T17:23:49.039Z,45.30
2022-09-06T17:26:16.261Z,45.30
2022-09-06T17:28:42.912Z,45.30
2022-09-06T17:31:09.674Z,45.40
2022-09-06T17:33:36.337Z,45.30
2022-09-06T17:36:07.025Z,45.40
2022-09-06T17:38:34.088Z,45.30
2022-09-06T17:41:00.817Z,45.30
2022-09-06T17:43:27.427Z,45.50
2022-09-06T17:45:54.178Z,45.80
2022-09-06T17:48:20.793Z,45.70
2022-09-06T17:50:47.606Z,45.60
2022-09-06T17:53:14.217Z,45.50
2022-09-06T17:55:41.206Z,45.90
2022-09-06T17:58:08.346Z,45.70
2022-09-06T18:00:38.451Z,45.70
2022-09-06T18:03:05.059Z,45.70
2022-09-06T18:05:35.654Z,45.80
2022-09-06T18:08:02.580Z,45.80
2022-09-06T18:10:29.223Z,45.70
2022-09-06T18:12:55.858Z,45.70
2022-09-06T18:15:22.502Z,45.80
2022-09-06T18:17:49.523Z,45.80
2022-09-06T18:20:16.160Z,46.00
2022-09-06T18:22:42.759Z,46.10
2022-09-06T18:25:09.641Z,45.80
2022-09-06T18:27:36.281Z,45.90
2022-09-06T18:30:02.945Z,45.90
2022-09-06T18:32:29.575Z,46.00
2022-09-06T18:34:56.415Z,46.00
2022-09-06T18:37:23.097Z,46.10
2022-09-06T18:39:49.745Z,46.10
2022-09-06T18:42:16.423Z,46.10
2022-09-06T18:44:44.301Z,46.10
2022-09-06T18:47:12.217Z,46.10
2022-09-06T18:49:43.819Z,46.20
2022-09-06T18:52:10.851Z,46.20
2022-09-06T18:54:37.563Z,46.20
2022-09-06T18:57:05.188Z,46.30
2022-09-06T18:59:31.821Z,46.30
2022-09-06T19:01:58.541Z,46.20
2022-09-06T19:04:25.274Z,46.30
2022-09-06T19:06:51.894Z,46.40
2022-09-06T19:09:18.573Z,46.30
2022-09-06T19:11:49.198Z,46.30
2022-09-06T19:14:15.823Z,46.30
2022-09-06T19:16:42.551Z,46.40
2022-09-06T19:19:09.782Z,46.50
2022-09-06T19:21:41.005Z,46.50
2022-09-06T19:24:09.162Z,46.50
2022-09-06T19:26:37.789Z,47.20
2022-09-06T19:29:06.472Z,46.60
2022-09-06T19:31:35.296Z,46.60
2022-09-06T19:34:02.080Z,46.60
2022-09-06T19:36:29.382Z,46.50
2022-09-06T19:39:04.986Z,46.40
2022-09-06T19:41:36.663Z,46.60
2022-09-06T19:44:05.641Z,47.00
2022-09-06T19:46:32.604Z,47.60
2022-09-06T19:49:00.391Z,46.80
2022-09-06T19:51:27.032Z,46.90
2022-09-06T19:53:57.353Z,48.60
2022-09-06T19:56:26.252Z,48.60
2022-09-06T19:58:57.217Z,48.60
2022-09-06T20:01:25.137Z,47.90
2022-09-06T20:03:52.456Z,47.60
2022-09-06T20:06:19.093Z,47.40
2022-09-06T20:08:49.854Z,47.20
2022-09-06T20:11:16.474Z,47.20
2022-09-06T20:13:43.517Z,47.20
2022-09-06T20:16:10.262Z,47.20
2022-09-06T20:18:37.655Z,47.20
2022-09-06T20:21:04.527Z,47.10
2022-09-06T20:23:31.900Z,47.20
2022-09-06T20:26:03.107Z,46.90
2022-09-06T20:28:29.883Z,46.90
2022-09-06T20:31:01.127Z,47.00
2022-09-06T20:33:27.934Z,47.20
2022-09-06T20:35:58.640Z,47.10
2022-09-06T20:38:25.340Z,46.90
2022-09-06T20:41:06.038Z,46.80
2022-09-06T20:43:34.404Z,46.80
2022-09-06T20:46:04.137Z,46.80
2022-09-06T20:48:32.580Z,46.80
2022-09-06T20:51:00.139Z,46.80
2022-09-06T20:53:26.880Z,46.70
2022-09-06T20:56:07.260Z,46.60
2022-09-06T20:58:33.948Z,46.60
2022-09-06T21:01:01.019Z,46.70
2022-09-06T21:03:27.752Z,46.60
2022-09-06T21:05:54.383Z,46.50
2022-09-06T21:08:21.026Z,46.40
2022-09-06T21:10:47.715Z,46.40
2022-09-06T21:13:14.425Z,46.40
2022-09-06T21:15:41.096Z,46.40
2022-09-06T21:18:08.583Z,46.20
2022-09-06T21:20:35.907Z,46.20
2022-09-06T21:23:02.683Z,46.10
2022-09-06T21:25:29.474Z,46.20
2022-09-06T21:27:56.096Z,46.20
2022-09-06T21:30:22.723Z,46.10
2022-09-06T21:32:49.483Z,46.20
2022-09-06T21:35:16.183Z,46.30
2022-09-06T21:37:42.809Z,46.30
2022-09-06T21:40:09.793Z,46.30
2022-09-06T21:42:36.474Z,46.30
2022-09-06T21:45:03.113Z,46.40
2022-09-06T21:47:31.150Z,46.30
2022-09-06T21:49:57.808Z,46.30
2022-09-06T21:52:24.464Z,46.30
2022-09-06T21:54:51.093Z,46.30
2022-09-06T21:57:17.963Z,46.40
2022-09-06T21:59:44.651Z,46.40
2022-09-06T22:02:12.576Z,46.30
2022-09-06T22:04:39.278Z,46.20
2022-09-06T22:07:05.911Z,46.10
2022-09-06T22:09:32.549Z,46.00
2022-09-06T22:11:59.156Z,45.90
2022-09-06T22:14:25.779Z,45.90
2022-09-06T22:16:53.419Z,45.90
2022-09-06T22:19:20.080Z,45.90
2022-09-06T22:21:46.694Z,45.90
2022-09-06T22:24:14.173Z,45.90
2022-09-06T22:26:40.946Z,45.90
2022-09-06T22:29:08.972Z,45.90
2022-09-06T22:31:35.717Z,45.90
2022-09-06T22:34:02.462Z,45.90
2022-09-06T22:36:29.174Z,45.90
2022-09-06T22:38:58.867Z,45.90
2022-09-06T22:41:29.425Z,45.90
2022-09-06T22:43:56.365Z,45.90
2022-09-06T22:46:23.114Z,46.00
2022-09-06T22:48:49.827Z,46.10
2022-09-06T22:51:16.650Z,46.20
2022-09-06T22:53:43.285Z,46.30
2022-09-06T22:56:10.011Z,46.20
2022-09-06T22:58:36.626Z,46.20
2022-09-06T23:01:08.188Z,46.20
2022-09-06T23:03:35.276Z,46.20
2022-09-06T23:06:02.563Z,46.20
2022-09-06T23:08:29.678Z,46.30
2022-09-06T23:10:56.384Z,46.30
2022-09-06T23:13:23.003Z,46.30
2022-09-06T23:15:49.658Z,46.10
2022-09-06T23:18:16.319Z,46.10
2022-09-06T23:20:42.951Z,46.00
2022-09-06T23:23:09.594Z,46.00
2022-09-06T23:25:39.274Z,45.90
2022-09-06T23:28:05.948Z,45.90
2022-09-06T23:30:32.584Z,45.90
2022-09-06T23:32:59.212Z,45.90
2022-09-06T23:35:25.853Z,45.90
2022-09-06T23:37:53.381Z,45.80
2022-09-06T23:40:20.112Z,45.80
2022-09-06T23:42:46.988Z,45.70
2022-09-06T23:45:13.709Z,45.70
2022-09-06T23:47:41.146Z,45.70
2022-09-06T23:50:07.949Z,45.70
2022-09-06T23:52:34.571Z,45.70
2022-09-06T23:55:01.205Z,45.80
2022-09-06T23:57:27.861Z,45.80
2022-09-06T23:59:54.516Z,45.90
